Terminal Aerodrome Forecast
Issued by NWS Springfield, MO

Home | Current Version | Previous Version | Text Only | Print | Product List | Glossary On
Versions: 1 2 3 4 5 6 7 8 9 10 11 12 13 14 15 16 17 18 19 20 21 22
000
FTUS43 KSGF 261700 RRA
TAFSGF
TAF
KSGF 261738Z 2618/2718 35010G15KT P6SM FEW030
     FM262300 33004KT P6SM FEW060
     FM270600 VRB03KT P6SM OVC060
     FM270800 36005KT P6SM OVC040
      TEMPO 2708/2712 -RASN OVC030
     FM271500 03008KT P6SM BKN040=

USA.gov is the U.S. government's official web portal to all federal, state and local government web resources and services.